Aviation Digital Data Service (ADDS)

Output produced by METARs form (0830 UTC 28 March 2020)
found at http://aviationweather.gov/metar/data/
 
METAR text: KPGV 280815Z AUTO 14006KT 10SM CLR 16/14 A2994 RMK AO2
Conditions at: KPGV (PITT GREENVILLE , NC, US) observed 0815 UTC 28 March 2020
Temperature: 16.0°C (61°F)
Dewpoint: 14.0°C (57°F) [RH = 88%]
Pressure (altimeter): 29.94 inches Hg (1014.0 mb)
Winds: from the SE (140 degrees) at 7 MPH (6 knots; 3.1 m/s)
Visibility: 10 or more miles (16+ km)
Ceiling: at least 12,000 feet AGL
Clouds: sky clear below 12,000 feet AGL
Weather: automated observation with no human augmentation;
there may or may not be significant weather present at this time

METAR text: KPGV 280755Z AUTO 11007KT 10SM CLR 16/14 A2993 RMK AO2
Conditions at: KPGV (PITT GREENVILLE , NC, US) observed 0755 UTC 28 March 2020
Temperature: 16.0°C (61°F)
Dewpoint: 14.0°C (57°F) [RH = 88%]
Pressure (altimeter): 29.93 inches Hg (1013.6 mb)
Winds: from the ESE (110 degrees) at 8 MPH (7 knots; 3.6 m/s)
Visibility: 10 or more miles (16+ km)
Ceiling: at least 12,000 feet AGL
Clouds: sky clear below 12,000 feet AGL
Weather: automated observation with no human augmentation;
there may or may not be significant weather present at this time

METAR text: KPGV 280735Z AUTO 10004KT 10SM SCT049 16/15 A2998 RMK AO2
Conditions at: KPGV (PITT GREENVILLE , NC, US) observed 0735 UTC 28 March 2020
Temperature: 16.0°C (61°F)
Dewpoint: 15.0°C (59°F) [RH = 94%]
Pressure (altimeter): 29.98 inches Hg (1015.3 mb)
Winds: from the E (100 degrees) at 5 MPH (4 knots; 2.1 m/s)
Visibility: 10 or more miles (16+ km)
Ceiling: at least 12,000 feet AGL
Clouds: scattered clouds at 4900 feet AGL
Weather: automated observation with no human augmentation;
there may or may not be significant weather present at this time

METAR text: KPGV 280715Z AUTO 10003KT 10SM SCT049 16/15 A2999 RMK AO2
Conditions at: KPGV (PITT GREENVILLE , NC, US) observed 0715 UTC 28 March 2020
Temperature: 16.0°C (61°F)
Dewpoint: 15.0°C (59°F) [RH = 94%]
Pressure (altimeter): 29.99 inches Hg (1015.7 mb)
Winds: from the E (100 degrees) at 3 MPH (3 knots; 1.5 m/s)
Visibility: 10 or more miles (16+ km)
Ceiling: at least 12,000 feet AGL
Clouds: scattered clouds at 4900 feet AGL
Weather: automated observation with no human augmentation;
there may or may not be significant weather present at this time

METAR text: KPGV 280655Z AUTO 10003KT 10SM CLR 16/14 A2999 RMK AO2
Conditions at: KPGV (PITT GREENVILLE , NC, US) observed 0655 UTC 28 March 2020
Temperature: 16.0°C (61°F)
Dewpoint: 14.0°C (57°F) [RH = 88%]
Pressure (altimeter): 29.99 inches Hg (1015.7 mb)
Winds: from the E (100 degrees) at 3 MPH (3 knots; 1.5 m/s)
Visibility: 10 or more miles (16+ km)
Ceiling: at least 12,000 feet AGL
Clouds: sky clear below 12,000 feet AGL
Weather: automated observation with no human augmentation;
there may or may not be significant weather present at this time

METAR text: KPGV 280635Z AUTO 11005KT 10SM CLR 17/15 A2999 RMK AO2
Conditions at: KPGV (PITT GREENVILLE , NC, US) observed 0635 UTC 28 March 2020
Temperature: 17.0°C (63°F)
Dewpoint: 15.0°C (59°F) [RH = 88%]
Pressure (altimeter): 29.99 inches Hg (1015.7 mb)
Winds: from the ESE (110 degrees) at 6 MPH (5 knots; 2.6 m/s)
Visibility: 10 or more miles (16+ km)
Ceiling: at least 12,000 feet AGL
Clouds: sky clear below 12,000 feet AGL
Weather: automated observation with no human augmentation;
there may or may not be significant weather present at this time

Forecast for: KPGV (PITT GREENVILLE , NC, US)
Text: KPGV 280521Z 2806/2906 09004KT P6SM SCT250
Forecast period: 0600 to 0800 UTC 28 March 2020
Forecast type: FROM: standard forecast or significant change
Winds: from the E (90 degrees) at 5 MPH (4 knots; 2.1 m/s)
Visibility: 6 or more miles 10+ km)
Ceiling: at least 12,000 feet AGL
Clouds: scattered clouds at 25000 feet AGL
Weather: no significant weather forecast for this period
Text: FM280800 VRB03KT P6SM SCT015 BKN250
Forecast period: 0800 to 1300 UTC 28 March 2020
Forecast type: FROM: standard forecast or significant change
Winds: variable direction winds at 3 MPH (3 knots; 1.5 m/s)
Visibility: 6 or more miles 10+ km)
Ceiling: 25000 feet AGL
Clouds: scattered clouds at 1500 feet AGL
broken clouds at 25000 feet AGL
Weather: no significant weather forecast for this period
Text: FM281300 22008G15KT P6SM SCT250
Forecast period: 1300 UTC 28 March 2020 to 0000 UTC 29 March 2020
Forecast type: FROM: standard forecast or significant change
Winds: from the SW (220 degrees) at 9 MPH (8 knots; 4.1 m/s)
gusting to 17 MPH (15 knots; 7.7 m/s)
Visibility: 6 or more miles 10+ km)
Ceiling: at least 12,000 feet AGL
Clouds: scattered clouds at 25000 feet AGL
Weather: no significant weather forecast for this period
Text: FM290000 20006KT P6SM SCT250 AMD LTD TO CLD VIS AND WIND
Forecast period: 0000 to 0600 UTC 29 March 2020
Forecast type: FROM: standard forecast or significant change
Winds: from the SSW (200 degrees) at 7 MPH (6 knots; 3.1 m/s)
Visibility: 6 or more miles 10+ km)
Ceiling: at least 12,000 feet AGL
Clouds: scattered clouds at 25000 feet AGL
Weather: no significant weather forecast for this period